Sandia, Texas
Current Conditions -  °F | °C
As of 6:56 AM on Friday 31 Oct 2014 (Local Time) from KNOG Reporting Station
Overcast Overcast  
Wind Chill: 70°   Ceiling: 6000
Heat Index: 70°   Visibility: 10mi
Dew Point: 68°   Wind: 7mph
Humidity: 93%   Direction: 290°WNW
Pressure: 30.11"   Gusts: NA
Location:  28.02°N, 97.88°W
Report Text: KNOG 311156Z AUTO 29006KT 10SM BKN060 OVC090 21/20 A3011 RMK AO2 SLP175 T02110200 10217 20189 53012 $
Loading
Personal Weather Stations






























Interactive Weather Map
Tropical Storm Tracking
New forecast layout! Learn more

10-Day Weather Forecast

Advertisements
Track Severe Weather on mobile